Hebbronville, Texas
Current Conditions -  °F | °C
As of 4:55 PM on Tuesday 21 Oct 2014 (Local Time) from KHBV Reporting Station
Broken Clouds Broken Clouds  
Wind Chill: 78°   Ceiling: 7500
Heat Index: 80°   Visibility: 10mi
Dew Point: 68°   Wind: 6mph
Humidity: 72%   Direction: 150°SSE
Pressure: 29.94"   Gusts: NA
Location:  27.31°N, 98.68°W
Report Text: KHBV 212155Z AUTO 15005KT 10SM SCT034 SCT047 BKN075 25/20 A2994 RMK AO2 T02540200 PWINO
Loading
Personal Weather Stations






























Interactive Weather Map
Tropical Storm Tracking
New forecast layout! Learn more

10-Day Weather Forecast

Advertisements
Track Severe Weather on mobile